createdAt,value
2018-02-14T00:03:03.234Z,6.73
2018-02-14T00:07:57.700Z,10.50
2018-02-14T00:12:51.976Z,9.53
2018-02-14T00:17:46.272Z,7.50
2018-02-14T00:22:40.572Z,7.10
2018-02-14T00:27:34.875Z,7.73
2018-02-14T00:32:29.192Z,9.80
2018-02-14T00:37:23.478Z,8.60
2018-02-14T00:42:17.762Z,9.53
2018-02-14T00:47:12.272Z,7.87
2018-02-14T00:52:06.798Z,7.47
2018-02-14T00:57:01.699Z,7.33
2018-02-14T01:01:57.033Z,8.17
2018-02-14T01:06:51.433Z,9.43
2018-02-14T01:11:46.096Z,13.47
2018-02-14T01:16:41.159Z,8.83
2018-02-14T01:21:35.235Z,9.40
2018-02-14T01:26:29.604Z,11.83
2018-02-14T01:31:24.866Z,9.83
2018-02-14T01:36:19.378Z,11.80
2018-02-14T01:41:13.934Z,9.67
2018-02-14T01:46:08.974Z,9.13
2018-02-14T01:51:04.038Z,12.20
2018-02-14T01:55:58.319Z,8.77
2018-02-14T02:00:52.631Z,11.23
2018-02-14T02:05:47.186Z,11.63
2018-02-14T02:10:42.357Z,10.03
2018-02-14T02:15:36.618Z,8.27
2018-02-14T02:20:36.734Z,7.27
2018-02-14T02:25:31.184Z,8.07
2018-02-14T02:30:26.223Z,10.33
2018-02-14T02:35:21.504Z,9.43
2018-02-14T02:40:31.869Z,10.03
2018-02-14T02:45:26.797Z,7.37
2018-02-14T02:50:21.104Z,10.20
2018-02-14T02:55:15.425Z,10.90
2018-02-14T03:00:09.619Z,9.83
2018-02-14T03:05:03.927Z,12.97
2018-02-14T03:09:58.204Z,9.33
2018-02-14T03:14:52.489Z,8.47
2018-02-14T03:19:47.892Z,9.23
2018-02-14T03:24:42.162Z,15.07
2018-02-14T03:29:36.481Z,8.97
2018-02-14T03:34:30.761Z,9.03
2018-02-14T03:39:25.073Z,10.60
2018-02-14T03:44:19.638Z,12.53
2018-02-14T03:49:13.979Z,9.83
2018-02-14T03:54:08.292Z,9.43
2018-02-14T03:59:02.606Z,11.30
2018-02-14T04:03:56.879Z,10.07
2018-02-14T04:08:51.192Z,15.37
2018-02-14T04:13:45.474Z,11.57
2018-02-14T04:18:39.878Z,9.70
2018-02-14T04:23:33.975Z,10.13
2018-02-14T04:28:31.973Z,10.53
2018-02-14T04:33:26.885Z,12.90
2018-02-14T04:38:21.421Z,11.00
2018-02-14T04:43:15.826Z,12.57
2018-02-14T04:48:10.909Z,13.63
2018-02-14T04:53:05.198Z,12.67
2018-02-14T04:57:59.800Z,11.27
2018-02-14T05:02:54.166Z,11.73
2018-02-14T05:07:49.529Z,8.60
2018-02-14T05:12:45.396Z,12.17
2018-02-14T05:17:39.842Z,9.70
2018-02-14T05:22:34.884Z,11.80
2018-02-14T05:27:29.478Z,14.27
2018-02-14T05:32:24.228Z,19.57
2018-02-14T05:37:18.724Z,10.93
2018-02-14T05:42:12.998Z,13.60
2018-02-14T05:47:07.429Z,14.67
2018-02-14T05:52:01.722Z,13.30
2018-02-14T05:56:56.015Z,14.13
2018-02-14T06:01:50.554Z,10.77
2018-02-14T06:06:45.052Z,12.77
2018-02-14T06:11:39.651Z,12.57
2018-02-14T06:16:34.309Z,14.57
2018-02-14T06:21:29.485Z,17.40
2018-02-14T06:26:23.791Z,15.53
2018-02-14T06:31:18.077Z,13.63
2018-02-14T06:36:12.394Z,14.60
2018-02-14T06:41:06.666Z,14.90
2018-02-14T06:46:01.017Z,17.80
2018-02-14T06:50:55.654Z,16.33
2018-02-14T06:55:51.343Z,15.97
2018-02-14T07:00:45.998Z,13.30
2018-02-14T07:05:40.420Z,17.97
2018-02-14T07:10:34.697Z,18.63
2018-02-14T07:15:29.752Z,20.33
2018-02-14T07:20:25.165Z,17.70
2018-02-14T07:25:19.824Z,18.80
2018-02-14T07:30:14.485Z,19.73
2018-02-14T07:35:08.901Z,16.40
2018-02-14T07:40:03.175Z,18.57
2018-02-14T07:44:57.448Z,19.33
2018-02-14T07:49:52.911Z,13.57
2018-02-14T07:54:47.204Z,14.70
2018-02-14T07:59:42.029Z,16.93
2018-02-14T08:04:36.312Z,16.20
2018-02-14T08:09:30.706Z,12.83
2018-02-14T08:14:25.073Z,18.17
2018-02-14T08:19:19.139Z,12.93
2018-02-14T08:24:13.425Z,12.80
2018-02-14T08:29:07.957Z,16.03
2018-02-14T08:34:02.372Z,14.43
2018-02-14T08:38:57.736Z,13.97
2018-02-14T08:43:52.895Z,14.53
2018-02-14T08:48:47.214Z,16.50
2018-02-14T08:53:41.758Z,16.30
2018-02-14T08:58:36.943Z,13.87
2018-02-14T09:03:31.220Z,14.73
2018-02-14T09:08:25.278Z,15.40
2018-02-14T09:13:20.342Z,14.27
2018-02-14T09:18:14.888Z,13.07
2018-02-14T09:23:09.562Z,15.57
2018-02-14T09:28:04.810Z,12.67
2018-02-14T09:32:59.096Z,15.20
2018-02-14T09:37:53.399Z,13.87
2018-02-14T09:42:47.784Z,11.63
2018-02-14T09:47:42.069Z,17.63
2018-02-14T09:52:36.366Z,12.83
2018-02-14T09:57:30.676Z,11.37
2018-02-14T10:02:25.068Z,12.30
2018-02-14T10:07:19.843Z,14.50
2018-02-14T10:12:14.906Z,17.00
2018-02-14T10:17:09.236Z,14.00
2018-02-14T10:22:03.537Z,18.17
2018-02-14T10:26:57.819Z,16.57
2018-02-14T10:31:52.108Z,17.87
2018-02-14T10:36:46.394Z,16.50
2018-02-14T10:41:41.714Z,16.70
2018-02-14T10:46:36.018Z,16.13
2018-02-14T10:51:30.378Z,15.97
2018-02-14T10:56:25.412Z,15.10
2018-02-14T11:01:25.873Z,16.07
2018-02-14T11:06:26.184Z,17.10
2018-02-14T11:11:20.568Z,18.37
2018-02-14T11:16:15.052Z,18.10
2018-02-14T11:21:09.324Z,17.97
2018-02-14T11:26:04.466Z,18.57
2018-02-14T11:30:58.873Z,14.40
2018-02-14T11:35:53.333Z,16.53
2018-02-14T11:40:48.373Z,14.93
2018-02-14T11:45:42.655Z,14.53
2018-02-14T11:50:37.690Z,12.47
2018-02-14T11:55:32.039Z,13.37
2018-02-14T12:00:26.523Z,13.43
2018-02-14T12:05:20.792Z,12.70
2018-02-14T12:10:16.038Z,12.90
2018-02-14T12:15:10.333Z,15.57
2018-02-14T12:20:04.634Z,12.60
2018-02-14T12:24:58.915Z,15.80
2018-02-14T12:29:53.945Z,12.70
2018-02-14T12:34:48.242Z,13.97
2018-02-14T12:39:42.537Z,15.13
2018-02-14T12:44:36.824Z,12.07
2018-02-14T12:49:31.874Z,12.10
2018-02-14T12:54:26.162Z,11.13
2018-02-14T12:59:20.452Z,12.33
2018-02-14T13:04:15.498Z,9.87
2018-02-14T13:09:09.964Z,9.63
2018-02-14T13:14:04.269Z,12.00
2018-02-14T13:18:59.394Z,12.20
2018-02-14T13:23:54.424Z,11.90
2018-02-14T13:28:48.697Z,8.43
2018-02-14T13:33:42.956Z,8.43
2018-02-14T13:38:37.445Z,8.97
2018-02-14T13:43:31.792Z,11.90
2018-02-14T13:48:26.058Z,9.47
2018-02-14T13:53:20.530Z,9.03
2018-02-14T13:58:15.774Z,6.97
2018-02-14T14:03:10.808Z,9.47
2018-02-14T14:08:05.092Z,7.47
2018-02-14T14:12:59.352Z,8.30
2018-02-14T14:17:54.452Z,9.00
2018-02-14T14:22:48.840Z,9.00
2018-02-14T14:27:43.116Z,8.87
2018-02-14T14:32:37.457Z,8.17
2018-02-14T14:37:32.493Z,8.03
2018-02-14T14:42:27.571Z,9.10
2018-02-14T14:47:21.749Z,8.13
2018-02-14T14:52:16.046Z,9.13
2018-02-14T14:57:10.469Z,9.10
2018-02-14T15:02:07.736Z,7.27
2018-02-14T15:07:02.047Z,7.33
2018-02-14T15:11:56.342Z,9.50
2018-02-14T15:16:50.753Z,7.33
2018-02-14T15:21:45.092Z,7.43
2018-02-14T15:26:40.286Z,5.83
2018-02-14T15:31:34.834Z,6.50
2018-02-14T15:36:30.099Z,7.60
2018-02-14T15:41:24.634Z,8.97
2018-02-14T15:46:21.584Z,8.03
2018-02-14T15:51:15.990Z,8.63
2018-02-14T15:56:10.466Z,7.90
2018-02-14T16:01:04.739Z,7.87
2018-02-14T16:05:59.790Z,8.37
2018-02-14T16:10:54.187Z,8.60
2018-02-14T16:15:48.715Z,7.97
2018-02-14T16:20:42.977Z,8.70
2018-02-14T16:25:37.459Z,6.67
2018-02-14T16:30:32.564Z,9.87
2018-02-14T16:35:27.683Z,7.93
2018-02-14T16:40:22.050Z,9.67
2018-02-14T16:45:16.759Z,9.50
2018-02-14T16:50:11.267Z,10.03
2018-02-14T16:55:05.775Z,12.27
2018-02-14T17:00:00.083Z,9.00
2018-02-14T17:04:54.720Z,9.80
2018-02-14T17:09:49.815Z,10.87
2018-02-14T17:14:44.106Z,10.73
2018-02-14T17:19:38.622Z,10.40
2018-02-14T17:24:32.903Z,12.37
2018-02-14T17:29:27.209Z,10.93
2018-02-14T17:34:21.640Z,13.70
2018-02-14T17:39:17.434Z,12.63
2018-02-14T17:44:14.739Z,11.17
2018-02-14T17:49:09.711Z,16.37
2018-02-14T17:54:04.509Z,10.47
2018-02-14T17:58:59.682Z,11.87
2018-02-14T18:03:54.898Z,11.30
2018-02-14T18:08:49.816Z,11.70
2018-02-14T18:13:44.914Z,13.17
2018-02-14T18:18:39.655Z,13.33
2018-02-14T18:23:34.033Z,16.83
2018-02-14T18:28:28.549Z,13.57
2018-02-14T18:33:22.982Z,13.07
2018-02-14T18:38:19.244Z,12.17
2018-02-14T18:43:14.430Z,13.87
2018-02-14T18:48:08.910Z,15.37
2018-02-14T18:53:03.462Z,14.50
2018-02-14T18:57:58.695Z,17.00
2018-02-14T19:02:53.937Z,14.40
2018-02-14T19:07:49.017Z,14.57
2018-02-14T19:12:43.315Z,13.37
2018-02-14T19:17:37.586Z,17.10
2018-02-14T19:22:31.903Z,13.83
2018-02-14T19:27:26.264Z,15.23
2018-02-14T19:32:20.565Z,11.53
2018-02-14T19:37:15.175Z,11.50
2018-02-14T19:42:09.747Z,13.00
2018-02-14T19:47:05.337Z,11.03
2018-02-14T19:51:59.994Z,12.77
2018-02-14T19:56:56.492Z,12.70
2018-02-14T20:01:50.847Z,14.70
2018-02-14T20:06:46.120Z,11.93
2018-02-14T20:11:40.761Z,12.90
2018-02-14T20:16:35.047Z,14.57
2018-02-14T20:21:29.475Z,12.80
2018-02-14T20:26:23.994Z,14.27
2018-02-14T20:31:19.225Z,16.90
2018-02-14T20:36:13.388Z,12.63
2018-02-14T20:41:07.664Z,16.07
2018-02-14T20:46:02.094Z,14.80
2018-02-14T20:50:56.410Z,13.07
2018-02-14T20:55:50.791Z,15.67
2018-02-14T21:00:45.088Z,13.63
2018-02-14T21:05:39.829Z,16.57
2018-02-14T21:10:34.174Z,16.07
2018-02-14T21:15:28.573Z,17.93
2018-02-14T21:20:23.147Z,16.33
2018-02-14T21:25:17.638Z,17.87
2018-02-14T21:30:12.112Z,18.80
2018-02-14T21:35:06.406Z,15.13
2018-02-14T21:40:00.756Z,16.10
2018-02-14T21:44:55.206Z,16.20
2018-02-14T21:49:49.674Z,16.63
2018-02-14T21:54:45.163Z,16.77
2018-02-14T21:59:39.666Z,20.07
2018-02-14T22:04:33.980Z,19.33
2018-02-14T22:09:28.539Z,17.40
2018-02-14T22:14:23.067Z,16.30
2018-02-14T22:19:20.867Z,18.63
2018-02-14T22:24:15.280Z,17.83
2018-02-14T22:29:09.621Z,17.10
2018-02-14T22:34:04.878Z,18.23
2018-02-14T22:38:59.543Z,17.13
2018-02-14T22:43:54.588Z,18.63
2018-02-14T22:48:48.877Z,16.30
2018-02-14T22:53:44.067Z,21.30
2018-02-14T22:58:38.345Z,20.37
2018-02-14T23:03:32.639Z,20.27
2018-02-14T23:08:26.917Z,18.30
2018-02-14T23:13:21.197Z,19.77
2018-02-14T23:18:16.246Z,17.90
2018-02-14T23:23:10.792Z,17.27
2018-02-14T23:28:04.848Z,19.20
2018-02-14T23:32:59.120Z,23.10
2018-02-14T23:37:54.173Z,19.33
2018-02-14T23:42:48.478Z,20.47
2018-02-14T23:47:42.774Z,20.37
2018-02-14T23:52:37.144Z,16.03
2018-02-14T23:57:32.193Z,18.87
